Airport ID:KRTS
Update Time (UTC):25/09/2020 07:02
Wind Speed (Knots):7
Wind Direction (Magnetic):230
Temperature (°C):14
Dew Point (°C):4
Humidity (%):55
Altimeter (inHg):30.11
Density Altitude (Feet):
Visibility:10+
Clouds (Hundreds of feet):CLR
Present Weather:
METAR:METAR KRTS 250700Z AUTO 25007KT 10SM CLR 14/04 A3011 RMK AO2

The data displayed is for advisory purposes only and is not to be used for flight planning or operations.